sensor_id;sensor_type;location;lat;lon;timestamp;temperature;humidity
1453;DHT22;720;47.738;7.998;2023-06-10T00:00:15;15.50;99.20
1453;DHT22;720;47.738;7.998;2023-06-10T00:02:41;15.50;99.30
1453;DHT22;720;47.738;7.998;2023-06-10T00:05:08;15.50;99.40
1453;DHT22;720;47.738;7.998;2023-06-10T00:07:34;15.50;99.00
1453;DHT22;720;47.738;7.998;2023-06-10T00:10:06;15.50;99.20
1453;DHT22;720;47.738;7.998;2023-06-10T00:12:32;15.50;99.10
1453;DHT22;720;47.738;7.998;2023-06-10T00:15:03;15.50;98.80
1453;DHT22;720;47.738;7.998;2023-06-10T00:17:30;15.50;98.90
1453;DHT22;720;47.738;7.998;2023-06-10T00:19:56;15.50;98.80
1453;DHT22;720;47.738;7.998;2023-06-10T00:22:23;15.50;98.80
1453;DHT22;720;47.738;7.998;2023-06-10T00:24:49;15.40;98.80
1453;DHT22;720;47.738;7.998;2023-06-10T00:27:16;15.40;99.30
1453;DHT22;720;47.738;7.998;2023-06-10T00:29:42;15.40;99.40
1453;DHT22;720;47.738;7.998;2023-06-10T00:32:07;15.40;99.40
1453;DHT22;720;47.738;7.998;2023-06-10T00:34:33;15.40;99.90
1453;DHT22;720;47.738;7.998;2023-06-10T00:36:59;15.30;99.30
1453;DHT22;720;47.738;7.998;2023-06-10T00:39:25;15.20;99.40
1453;DHT22;720;47.738;7.998;2023-06-10T00:41:50;15.20;99.40
1453;DHT22;720;47.738;7.998;2023-06-10T00:44:16;15.10;99.40
1453;DHT22;720;47.738;7.998;2023-06-10T00:46:42;15.10;99.50
1453;DHT22;720;47.738;7.998;2023-06-10T00:49:08;15.10;99.60
1453;DHT22;720;47.738;7.998;2023-06-10T00:51:35;15.00;99.70
1453;DHT22;720;47.738;7.998;2023-06-10T00:54:01;15.00;99.10
1453;DHT22;720;47.738;7.998;2023-06-10T00:56:27;15.10;99.00
1453;DHT22;720;47.738;7.998;2023-06-10T00:58:54;15.10;99.20
1453;DHT22;720;47.738;7.998;2023-06-10T01:01:20;15.10;99.20
1453;DHT22;720;47.738;7.998;2023-06-10T01:03:46;15.00;99.20
1453;DHT22;720;47.738;7.998;2023-06-10T01:06:29;15.00;99.50
1453;DHT22;720;47.738;7.998;2023-06-10T01:09:02;15.00;99.40
1453;DHT22;720;47.738;7.998;2023-06-10T01:11:40;15.00;99.20
1453;DHT22;720;47.738;7.998;2023-06-10T01:14:09;15.00;99.30
1453;DHT22;720;47.738;7.998;2023-06-10T01:16:35;15.10;99.20
1453;DHT22;720;47.738;7.998;2023-06-10T01:19:02;15.10;99.00
1453;DHT22;720;47.738;7.998;2023-06-10T01:21:28;15.10;98.60
1453;DHT22;720;47.738;7.998;2023-06-10T01:23:55;15.00;98.90
1453;DHT22;720;47.738;7.998;2023-06-10T01:26:25;15.00;98.90
1453;DHT22;720;47.738;7.998;2023-06-10T01:29:06;14.80;99.10
1453;DHT22;720;47.738;7.998;2023-06-10T01:34:14;14.80;99.30
1453;DHT22;720;47.738;7.998;2023-06-10T01:36:46;14.80;99.40
1453;DHT22;720;47.738;7.998;2023-06-10T01:39:15;14.70;99.30
1453;DHT22;720;47.738;7.998;2023-06-10T01:41:42;14.60;99.40
1453;DHT22;720;47.738;7.998;2023-06-10T01:44:08;14.50;99.80
1453;DHT22;720;47.738;7.998;2023-06-10T01:46:33;14.50;99.90
1453;DHT22;720;47.738;7.998;2023-06-10T01:48:59;14.50;99.90
1453;DHT22;720;47.738;7.998;2023-06-10T01:53:51;14.40;99.50
1453;DHT22;720;47.738;7.998;2023-06-10T01:56:16;14.30;99.90
1453;DHT22;720;47.738;7.998;2023-06-10T01:58:45;14.30;99.80
1453;DHT22;720;47.738;7.998;2023-06-10T02:01:10;14.30;99.60
1453;DHT22;720;47.738;7.998;2023-06-10T02:03:36;14.30;99.80
1453;DHT22;720;47.738;7.998;2023-06-10T02:06:02;14.20;99.90
1453;DHT22;720;47.738;7.998;2023-06-10T02:08:27;14.20;99.90
1453;DHT22;720;47.738;7.998;2023-06-10T02:10:53;14.20;99.90
1453;DHT22;720;47.738;7.998;2023-06-10T02:13:19;14.10;99.80
1453;DHT22;720;47.738;7.998;2023-06-10T02:15:45;14.00;99.90
1453;DHT22;720;47.738;7.998;2023-06-10T02:18:10;14.00;99.90
1453;DHT22;720;47.738;7.998;2023-06-10T02:20:38;13.90;99.90
1453;DHT22;720;47.738;7.998;2023-06-10T02:23:03;13.90;99.90
1453;DHT22;720;47.738;7.998;2023-06-10T02:25:29;13.90;99.90
1453;DHT22;720;47.738;7.998;2023-06-10T02:27:55;13.90;99.90
1453;DHT22;720;47.738;7.998;2023-06-10T02:32:46;13.80;99.90
1453;DHT22;720;47.738;7.998;2023-06-10T02:35:16;13.90;99.90
1453;DHT22;720;47.738;7.998;2023-06-10T02:37:43;13.80;99.90
1453;DHT22;720;47.738;7.998;2023-06-10T02:40:09;13.80;99.90
1453;DHT22;720;47.738;7.998;2023-06-10T02:42:35;13.70;99.90
1453;DHT22;720;47.738;7.998;2023-06-10T02:45:01;13.80;99.90
1453;DHT22;720;47.738;7.998;2023-06-10T02:47:27;13.80;99.90
1453;DHT22;720;47.738;7.998;2023-06-10T02:52:19;13.90;99.90
1453;DHT22;720;47.738;7.998;2023-06-10T02:54:45;13.80;99.90
1453;DHT22;720;47.738;7.998;2023-06-10T02:57:11;13.90;99.90
1453;DHT22;720;47.738;7.998;2023-06-10T03:02:03;13.70;99.90
1453;DHT22;720;47.738;7.998;2023-06-10T03:04:29;13.50;99.90
1453;DHT22;720;47.738;7.998;2023-06-10T03:06:56;13.60;99.90
1453;DHT22;720;47.738;7.998;2023-06-10T03:09:21;13.60;99.90
1453;DHT22;720;47.738;7.998;2023-06-10T03:11:47;13.60;99.90
1453;DHT22;720;47.738;7.998;2023-06-10T03:14:13;13.50;99.90
1453;DHT22;720;47.738;7.998;2023-06-10T03:16:38;13.40;99.90
1453;DHT22;720;47.738;7.998;2023-06-10T03:19:06;13.30;99.90
1453;DHT22;720;47.738;7.998;2023-06-10T03:21:33;13.20;99.90
1453;DHT22;720;47.738;7.998;2023-06-10T03:23:59;13.30;99.90
1453;DHT22;720;47.738;7.998;2023-06-10T03:26:26;13.20;99.90
1453;DHT22;720;47.738;7.998;2023-06-10T03:28:52;13.20;99.90
1453;DHT22;720;47.738;7.998;2023-06-10T03:31:18;13.20;99.90
1453;DHT22;720;47.738;7.998;2023-06-10T03:33:44;13.20;99.90
1453;DHT22;720;47.738;7.998;2023-06-10T03:36:10;13.20;99.90
1453;DHT22;720;47.738;7.998;2023-06-10T03:38:35;13.20;99.90
1453;DHT22;720;47.738;7.998;2023-06-10T03:41:02;13.20;99.90
1453;DHT22;720;47.738;7.998;2023-06-10T03:43:27;13.20;99.90
1453;DHT22;720;47.738;7.998;2023-06-10T03:45:53;13.20;99.90
1453;DHT22;720;47.738;7.998;2023-06-10T03:48:19;13.20;99.90
1453;DHT22;720;47.738;7.998;2023-06-10T03:50:45;13.10;99.90
1453;DHT22;720;47.738;7.998;2023-06-10T03:53:12;13.20;99.90
1453;DHT22;720;47.738;7.998;2023-06-10T03:55:38;13.20;99.90
1453;DHT22;720;47.738;7.998;2023-06-10T03:58:04;13.20;99.90
1453;DHT22;720;47.738;7.998;2023-06-10T04:00:29;13.40;99.90
1453;DHT22;720;47.738;7.998;2023-06-10T04:02:55;13.40;99.90
1453;DHT22;720;47.738;7.998;2023-06-10T04:05:23;13.20;99.90
1453;DHT22;720;47.738;7.998;2023-06-10T04:07:49;13.10;99.90
1453;DHT22;720;47.738;7.998;2023-06-10T04:10:15;13.10;99.90
1453;DHT22;720;47.738;7.998;2023-06-10T04:12:41;13.10;99.90
1453;DHT22;720;47.738;7.998;2023-06-10T04:15:07;13.20;99.90
1453;DHT22;720;47.738;7.998;2023-06-10T04:17:33;13.30;99.90
1453;DHT22;720;47.738;7.998;2023-06-10T04:19:59;13.40;99.90
1453;DHT22;720;47.738;7.998;2023-06-10T04:22:26;13.50;99.90
1453;DHT22;720;47.738;7.998;2023-06-10T04:24:52;13.60;99.90
1453;DHT22;720;47.738;7.998;2023-06-10T04:27:17;13.70;99.90
1453;DHT22;720;47.738;7.998;2023-06-10T04:29:43;14.00;99.90
1453;DHT22;720;47.738;7.998;2023-06-10T04:32:09;14.40;99.90
1453;DHT22;720;47.738;7.998;2023-06-10T04:34:34;15.60;99.90
1453;DHT22;720;47.738;7.998;2023-06-10T04:37:00;15.50;99.90
1453;DHT22;720;47.738;7.998;2023-06-10T04:39:26;16.10;99.20
1453;DHT22;720;47.738;7.998;2023-06-10T04:41:51;16.40;98.30
1453;DHT22;720;47.738;7.998;2023-06-10T04:44:17;16.60;97.80
1453;DHT22;720;47.738;7.998;2023-06-10T04:46:44;16.60;97.50
1453;DHT22;720;47.738;7.998;2023-06-10T04:49:10;16.60;97.30
1453;DHT22;720;47.738;7.998;2023-06-10T04:51:35;16.90;97.20
1453;DHT22;720;47.738;7.998;2023-06-10T04:54:01;17.10;96.70
1453;DHT22;720;47.738;7.998;2023-06-10T04:56:29;17.20;95.00
1453;DHT22;720;47.738;7.998;2023-06-10T04:58:56;17.20;95.40
1453;DHT22;720;47.738;7.998;2023-06-10T05:01:22;17.10;95.30
1453;DHT22;720;47.738;7.998;2023-06-10T05:03:48;17.10;95.70
1453;DHT22;720;47.738;7.998;2023-06-10T05:06:13;17.10;95.80
1453;DHT22;720;47.738;7.998;2023-06-10T05:08:39;17.40;96.00
1453;DHT22;720;47.738;7.998;2023-06-10T05:11:05;17.50;95.80
1453;DHT22;720;47.738;7.998;2023-06-10T05:13:31;17.70;95.70
1453;DHT22;720;47.738;7.998;2023-06-10T05:15:58;17.90;95.20
1453;DHT22;720;47.738;7.998;2023-06-10T05:18:24;18.20;94.80
1453;DHT22;720;47.738;7.998;2023-06-10T05:20:49;18.40;94.60
1453;DHT22;720;47.738;7.998;2023-06-10T05:23:15;18.40;94.10
1453;DHT22;720;47.738;7.998;2023-06-10T05:25:40;18.40;94.30
1453;DHT22;720;47.738;7.998;2023-06-10T05:28:07;18.30;94.10
1453;DHT22;720;47.738;7.998;2023-06-10T05:30:35;18.30;94.50
1453;DHT22;720;47.738;7.998;2023-06-10T05:33:02;18.20;94.60
1453;DHT22;720;47.738;7.998;2023-06-10T05:35:28;18.20;95.00
1453;DHT22;720;47.738;7.998;2023-06-10T05:37:54;18.30;95.10
1453;DHT22;720;47.738;7.998;2023-06-10T05:42:46;18.40;94.60
1453;DHT22;720;47.738;7.998;2023-06-10T05:45:11;18.40;95.20
1453;DHT22;720;47.738;7.998;2023-06-10T05:47:37;18.50;94.50
1453;DHT22;720;47.738;7.998;2023-06-10T05:50:03;18.70;94.70
1453;DHT22;720;47.738;7.998;2023-06-10T05:52:35;18.80;94.20
1453;DHT22;720;47.738;7.998;2023-06-10T05:55:02;19.00;94.50
1453;DHT22;720;47.738;7.998;2023-06-10T05:57:28;19.00;94.10
1453;DHT22;720;47.738;7.998;2023-06-10T05:59:53;19.10;94.00
1453;DHT22;720;47.738;7.998;2023-06-10T06:02:19;19.30;94.60
1453;DHT22;720;47.738;7.998;2023-06-10T06:04:44;19.40;94.10
1453;DHT22;720;47.738;7.998;2023-06-10T06:07:10;19.70;93.90
1453;DHT22;720;47.738;7.998;2023-06-10T06:09:36;20.30;93.00
1453;DHT22;720;47.738;7.998;2023-06-10T06:12:01;21.30;92.70
1453;DHT22;720;47.738;7.998;2023-06-10T06:14:30;22.60;91.40
1453;DHT22;720;47.738;7.998;2023-06-10T06:16:56;24.40;88.60
1453;DHT22;720;47.738;7.998;2023-06-10T06:19:22;26.00;81.80
1453;DHT22;720;47.738;7.998;2023-06-10T06:21:47;27.70;71.70
1453;DHT22;720;47.738;7.998;2023-06-10T06:24:14;29.30;66.40
1453;DHT22;720;47.738;7.998;2023-06-10T06:26:40;30.90;59.70
1453;DHT22;720;47.738;7.998;2023-06-10T06:29:06;32.00;55.20
1453;DHT22;720;47.738;7.998;2023-06-10T06:31:31;33.20;52.60
1453;DHT22;720;47.738;7.998;2023-06-10T06:33:57;34.10;48.20
1453;DHT22;720;47.738;7.998;2023-06-10T06:36:23;34.80;45.20
1453;DHT22;720;47.738;7.998;2023-06-10T06:38:48;34.80;44.90
1453;DHT22;720;47.738;7.998;2023-06-10T06:41:14;34.90;43.90
1453;DHT22;720;47.738;7.998;2023-06-10T06:43:40;35.40;42.60
1453;DHT22;720;47.738;7.998;2023-06-10T06:46:05;35.60;43.10
1453;DHT22;720;47.738;7.998;2023-06-10T06:48:31;35.50;41.20
1453;DHT22;720;47.738;7.998;2023-06-10T06:50:56;34.90;43.50
1453;DHT22;720;47.738;7.998;2023-06-10T06:53:24;34.10;43.20
1453;DHT22;720;47.738;7.998;2023-06-10T06:55:49;33.30;43.90
1453;DHT22;720;47.738;7.998;2023-06-10T06:58:15;33.20;44.50
1453;DHT22;720;47.738;7.998;2023-06-10T07:00:40;33.00;44.40
1453;DHT22;720;47.738;7.998;2023-06-10T07:03:06;32.60;44.80
1453;DHT22;720;47.738;7.998;2023-06-10T07:05:32;32.10;46.80
1453;DHT22;720;47.738;7.998;2023-06-10T07:07:57;31.60;48.70
1453;DHT22;720;47.738;7.998;2023-06-10T07:10:24;30.90;49.00
1453;DHT22;720;47.738;7.998;2023-06-10T07:12:50;30.40;48.80
1453;DHT22;720;47.738;7.998;2023-06-10T07:15:16;30.20;50.40
1453;DHT22;720;47.738;7.998;2023-06-10T07:17:42;30.40;50.60
1453;DHT22;720;47.738;7.998;2023-06-10T07:20:08;31.00;50.60
1453;DHT22;720;47.738;7.998;2023-06-10T07:22:34;31.50;50.50
1453;DHT22;720;47.738;7.998;2023-06-10T07:24:59;31.50;49.90
1453;DHT22;720;47.738;7.998;2023-06-10T07:27:25;31.10;49.50
1453;DHT22;720;47.738;7.998;2023-06-10T07:29:51;30.90;50.30
1453;DHT22;720;47.738;7.998;2023-06-10T07:32:17;31.10;49.20
1453;DHT22;720;47.738;7.998;2023-06-10T07:34:43;31.10;45.80
1453;DHT22;720;47.738;7.998;2023-06-10T07:37:09;30.90;46.40
1453;DHT22;720;47.738;7.998;2023-06-10T07:39:34;30.70;48.60
1453;DHT22;720;47.738;7.998;2023-06-10T07:42:00;30.90;45.90
1453;DHT22;720;47.738;7.998;2023-06-10T07:44:26;33.00;49.20
1453;DHT22;720;47.738;7.998;2023-06-10T07:46:52;32.70;46.90
1453;DHT22;720;47.738;7.998;2023-06-10T07:49:17;33.70;44.30
1453;DHT22;720;47.738;7.998;2023-06-10T07:51:43;35.00;41.90
1453;DHT22;720;47.738;7.998;2023-06-10T07:54:09;36.20;39.20
1453;DHT22;720;47.738;7.998;2023-06-10T07:56:34;35.70;39.50
1453;DHT22;720;47.738;7.998;2023-06-10T07:59:00;35.10;39.90
1453;DHT22;720;47.738;7.998;2023-06-10T08:01:25;35.50;40.40
1453;DHT22;720;47.738;7.998;2023-06-10T08:03:51;36.70;38.60
1453;DHT22;720;47.738;7.998;2023-06-10T08:06:17;37.40;35.90
1453;DHT22;720;47.738;7.998;2023-06-10T08:08:43;38.10;36.30
1453;DHT22;720;47.738;7.998;2023-06-10T08:11:11;38.60;34.20
1453;DHT22;720;47.738;7.998;2023-06-10T08:13:36;38.20;33.70
1453;DHT22;720;47.738;7.998;2023-06-10T08:16:02;37.90;35.00
1453;DHT22;720;47.738;7.998;2023-06-10T08:18:28;37.60;34.50
1453;DHT22;720;47.738;7.998;2023-06-10T08:20:54;38.10;34.60
1453;DHT22;720;47.738;7.998;2023-06-10T08:23:20;38.70;32.60
1453;DHT22;720;47.738;7.998;2023-06-10T08:25:45;38.60;33.70
1453;DHT22;720;47.738;7.998;2023-06-10T08:28:11;38.90;32.70
1453;DHT22;720;47.738;7.998;2023-06-10T08:30:37;38.80;32.70
1453;DHT22;720;47.738;7.998;2023-06-10T08:33:02;37.50;35.50
1453;DHT22;720;47.738;7.998;2023-06-10T08:35:28;36.30;33.30
1453;DHT22;720;47.738;7.998;2023-06-10T08:37:54;34.90;36.40
1453;DHT22;720;47.738;7.998;2023-06-10T08:40:19;34.40;36.60
1453;DHT22;720;47.738;7.998;2023-06-10T08:45:17;31.60;40.90
1453;DHT22;720;47.738;7.998;2023-06-10T08:47:46;30.20;44.10
1453;DHT22;720;47.738;7.998;2023-06-10T08:50:16;30.50;41.30
1453;DHT22;720;47.738;7.998;2023-06-10T08:52:43;31.20;40.40
1453;DHT22;720;47.738;7.998;2023-06-10T08:55:18;32.40;40.10
1453;DHT22;720;47.738;7.998;2023-06-10T08:57:48;33.50;40.10
1453;DHT22;720;47.738;7.998;2023-06-10T09:00:15;33.30;36.70
1453;DHT22;720;47.738;7.998;2023-06-10T09:02:42;32.10;38.70
1453;DHT22;720;47.738;7.998;2023-06-10T09:05:09;31.40;40.00
1453;DHT22;720;47.738;7.998;2023-06-10T09:07:35;31.00;39.20
1453;DHT22;720;47.738;7.998;2023-06-10T09:10:02;29.60;40.20
1453;DHT22;720;47.738;7.998;2023-06-10T09:12:29;28.70;41.90
1453;DHT22;720;47.738;7.998;2023-06-10T09:14:55;28.20;45.20
1453;DHT22;720;47.738;7.998;2023-06-10T09:17:21;28.00;43.90
1453;DHT22;720;47.738;7.998;2023-06-10T09:19:47;29.00;42.70
1453;DHT22;720;47.738;7.998;2023-06-10T09:22:14;30.40;40.90
1453;DHT22;720;47.738;7.998;2023-06-10T09:24:40;29.60;50.40
1453;DHT22;720;47.738;7.998;2023-06-10T09:27:08;29.80;42.20
1453;DHT22;720;47.738;7.998;2023-06-10T09:29:54;29.10;41.10
1453;DHT22;720;47.738;7.998;2023-06-10T09:32:21;28.30;42.60
1453;DHT22;720;47.738;7.998;2023-06-10T09:34:47;28.00;46.40
1453;DHT22;720;47.738;7.998;2023-06-10T09:37:13;27.50;46.90
1453;DHT22;720;47.738;7.998;2023-06-10T09:39:42;27.00;45.50
1453;DHT22;720;47.738;7.998;2023-06-10T09:42:17;27.00;45.10
1453;DHT22;720;47.738;7.998;2023-06-10T09:44:52;28.10;52.20
1453;DHT22;720;47.738;7.998;2023-06-10T09:47:21;29.40;50.00
1453;DHT22;720;47.738;7.998;2023-06-10T09:49:48;29.60;49.30
1453;DHT22;720;47.738;7.998;2023-06-10T09:52:14;29.00;50.90
1453;DHT22;720;47.738;7.998;2023-06-10T09:54:39;27.10;67.40
1453;DHT22;720;47.738;7.998;2023-06-10T09:57:08;27.10;55.40
1453;DHT22;720;47.738;7.998;2023-06-10T09:59:37;26.30;56.80
1453;DHT22;720;47.738;7.998;2023-06-10T10:02:03;25.90;58.60
1453;DHT22;720;47.738;7.998;2023-06-10T10:04:29;25.20;65.50
1453;DHT22;720;47.738;7.998;2023-06-10T10:06:55;25.20;59.70
1453;DHT22;720;47.738;7.998;2023-06-10T10:09:21;25.40;59.60
1453;DHT22;720;47.738;7.998;2023-06-10T10:11:47;25.40;59.10
1453;DHT22;720;47.738;7.998;2023-06-10T10:14:15;25.60;60.70
1453;DHT22;720;47.738;7.998;2023-06-10T10:16:41;25.80;59.00
1453;DHT22;720;47.738;7.998;2023-06-10T10:19:11;26.10;59.30
1453;DHT22;720;47.738;7.998;2023-06-10T10:21:43;26.40;57.70
1453;DHT22;720;47.738;7.998;2023-06-10T10:24:23;26.00;57.80
1453;DHT22;720;47.738;7.998;2023-06-10T10:26:54;25.90;57.30
1453;DHT22;720;47.738;7.998;2023-06-10T10:29:33;25.80;57.10
1453;DHT22;720;47.738;7.998;2023-06-10T10:32:01;26.00;57.50
1453;DHT22;720;47.738;7.998;2023-06-10T10:35:00;27.40;59.00
1453;DHT22;720;47.738;7.998;2023-06-10T10:37:31;27.30;55.60
1453;DHT22;720;47.738;7.998;2023-06-10T10:39:57;27.10;56.40
1453;DHT22;720;47.738;7.998;2023-06-10T10:42:23;26.80;56.70
1453;DHT22;720;47.738;7.998;2023-06-10T10:44:50;26.90;55.50
1453;DHT22;720;47.738;7.998;2023-06-10T10:47:17;26.90;56.00
1453;DHT22;720;47.738;7.998;2023-06-10T10:49:46;26.40;55.10
1453;DHT22;720;47.738;7.998;2023-06-10T10:52:14;25.90;57.00
1453;DHT22;720;47.738;7.998;2023-06-10T10:54:45;25.30;75.90
1453;DHT22;720;47.738;7.998;2023-06-10T10:57:18;25.30;60.60
1453;DHT22;720;47.738;7.998;2023-06-10T10:59:55;25.70;56.20
1453;DHT22;720;47.738;7.998;2023-06-10T11:02:38;26.20;55.10
1453;DHT22;720;47.738;7.998;2023-06-10T11:05:06;26.60;51.00
1453;DHT22;720;47.738;7.998;2023-06-10T11:07:34;26.90;50.50
1453;DHT22;720;47.738;7.998;2023-06-10T11:15:09;26.20;50.20
1453;DHT22;720;47.738;7.998;2023-06-10T11:17:35;26.00;51.70
1453;DHT22;720;47.738;7.998;2023-06-10T11:20:01;26.00;52.40
1453;DHT22;720;47.738;7.998;2023-06-10T11:22:27;26.20;52.40
1453;DHT22;720;47.738;7.998;2023-06-10T11:24:53;26.30;51.50
1453;DHT22;720;47.738;7.998;2023-06-10T11:27:23;26.40;52.90
1453;DHT22;720;47.738;7.998;2023-06-10T11:32:33;26.20;51.10
1453;DHT22;720;47.738;7.998;2023-06-10T11:34:59;26.20;52.00
1453;DHT22;720;47.738;7.998;2023-06-10T11:37:25;26.40;50.10
1453;DHT22;720;47.738;7.998;2023-06-10T11:39:54;26.40;51.80
1453;DHT22;720;47.738;7.998;2023-06-10T11:42:21;26.20;50.40
1453;DHT22;720;47.738;7.998;2023-06-10T11:44:50;26.20;55.90
1453;DHT22;720;47.738;7.998;2023-06-10T11:47:17;26.10;50.40
1453;DHT22;720;47.738;7.998;2023-06-10T11:49:42;26.20;52.80
1453;DHT22;720;47.738;7.998;2023-06-10T11:52:08;26.00;53.80
1453;DHT22;720;47.738;7.998;2023-06-10T11:54:34;26.20;59.90
1453;DHT22;720;47.738;7.998;2023-06-10T11:57:00;26.40;50.20
1453;DHT22;720;47.738;7.998;2023-06-10T11:59:29;26.70;49.20
1453;DHT22;720;47.738;7.998;2023-06-10T12:01:55;27.10;51.80
1453;DHT22;720;47.738;7.998;2023-06-10T12:04:22;27.30;48.70
1453;DHT22;720;47.738;7.998;2023-06-10T12:06:52;27.20;47.90
1453;DHT22;720;47.738;7.998;2023-06-10T12:09:19;27.10;49.20
1453;DHT22;720;47.738;7.998;2023-06-10T12:11:45;27.20;48.10
1453;DHT22;720;47.738;7.998;2023-06-10T12:14:13;26.80;46.50
1453;DHT22;720;47.738;7.998;2023-06-10T12:16:39;26.60;47.20
1453;DHT22;720;47.738;7.998;2023-06-10T12:19:05;26.70;47.30
1453;DHT22;720;47.738;7.998;2023-06-10T12:21:33;26.80;46.50
1453;DHT22;720;47.738;7.998;2023-06-10T12:24:10;27.20;48.30
1453;DHT22;720;47.738;7.998;2023-06-10T12:26:44;27.50;46.10
1453;DHT22;720;47.738;7.998;2023-06-10T12:32:00;27.10;51.40
1453;DHT22;720;47.738;7.998;2023-06-10T12:34:33;26.90;52.30
1453;DHT22;720;47.738;7.998;2023-06-10T12:37:00;26.70;48.50
1453;DHT22;720;47.738;7.998;2023-06-10T12:39:26;26.50;48.30
1453;DHT22;720;47.738;7.998;2023-06-10T12:41:52;26.40;48.80
1453;DHT22;720;47.738;7.998;2023-06-10T12:44:18;26.30;50.10
1453;DHT22;720;47.738;7.998;2023-06-10T12:46:44;26.10;52.80
1453;DHT22;720;47.738;7.998;2023-06-10T12:49:19;26.00;51.50
1453;DHT22;720;47.738;7.998;2023-06-10T12:51:45;25.80;53.70
1453;DHT22;720;47.738;7.998;2023-06-10T12:54:11;25.70;52.70
1453;DHT22;720;47.738;7.998;2023-06-10T12:56:38;25.90;53.30
1453;DHT22;720;47.738;7.998;2023-06-10T12:59:03;26.20;51.40
1453;DHT22;720;47.738;7.998;2023-06-10T13:01:32;26.40;52.20
1453;DHT22;720;47.738;7.998;2023-06-10T13:03:58;26.60;49.70
1453;DHT22;720;47.738;7.998;2023-06-10T13:06:24;26.70;50.80
1453;DHT22;720;47.738;7.998;2023-06-10T13:08:49;26.60;50.40
1453;DHT22;720;47.738;7.998;2023-06-10T13:11:16;26.40;49.40
1453;DHT22;720;47.738;7.998;2023-06-10T13:13:42;26.20;49.10
1453;DHT22;720;47.738;7.998;2023-06-10T13:16:08;26.00;49.50
1453;DHT22;720;47.738;7.998;2023-06-10T13:18:34;26.10;49.70
1453;DHT22;720;47.738;7.998;2023-06-10T13:21:05;26.40;51.10
1453;DHT22;720;47.738;7.998;2023-06-10T13:23:31;26.90;52.00
1453;DHT22;720;47.738;7.998;2023-06-10T13:25:57;27.30;50.00
1453;DHT22;720;47.738;7.998;2023-06-10T13:28:23;27.40;51.50
1453;DHT22;720;47.738;7.998;2023-06-10T13:30:49;27.10;47.80
1453;DHT22;720;47.738;7.998;2023-06-10T13:33:15;26.70;49.90
1453;DHT22;720;47.738;7.998;2023-06-10T13:35:41;26.60;51.00
1453;DHT22;720;47.738;7.998;2023-06-10T13:38:07;26.40;50.30
1453;DHT22;720;47.738;7.998;2023-06-10T13:40:32;26.30;53.00
1453;DHT22;720;47.738;7.998;2023-06-10T13:42:58;26.20;50.00
1453;DHT22;720;47.738;7.998;2023-06-10T13:45:24;25.90;51.50
1453;DHT22;720;47.738;7.998;2023-06-10T13:47:50;25.80;54.00
1453;DHT22;720;47.738;7.998;2023-06-10T13:50:16;25.70;51.90
1453;DHT22;720;47.738;7.998;2023-06-10T13:52:41;25.60;52.10
1453;DHT22;720;47.738;7.998;2023-06-10T13:55:07;25.30;51.70
1453;DHT22;720;47.738;7.998;2023-06-10T13:57:33;25.20;51.70
1453;DHT22;720;47.738;7.998;2023-06-10T13:59:59;25.30;50.70
1453;DHT22;720;47.738;7.998;2023-06-10T14:02:25;25.50;52.50
1453;DHT22;720;47.738;7.998;2023-06-10T14:04:50;25.60;49.90
1453;DHT22;720;47.738;7.998;2023-06-10T14:07:16;25.90;50.90
1453;DHT22;720;47.738;7.998;2023-06-10T14:09:42;26.10;49.50
1453;DHT22;720;47.738;7.998;2023-06-10T14:12:07;26.20;51.50
1453;DHT22;720;47.738;7.998;2023-06-10T14:14:34;26.30;56.10
1453;DHT22;720;47.738;7.998;2023-06-10T14:17:00;26.10;51.80
1453;DHT22;720;47.738;7.998;2023-06-10T14:19:26;25.90;52.70
1453;DHT22;720;47.738;7.998;2023-06-10T14:21:51;25.60;50.60
1453;DHT22;720;47.738;7.998;2023-06-10T14:24:19;25.40;51.80
1453;DHT22;720;47.738;7.998;2023-06-10T14:26:44;25.20;54.80
1453;DHT22;720;47.738;7.998;2023-06-10T14:29:10;25.00;56.70
1453;DHT22;720;47.738;7.998;2023-06-10T14:31:39;24.90;54.10
1453;DHT22;720;47.738;7.998;2023-06-10T14:34:05;24.70;52.60
1453;DHT22;720;47.738;7.998;2023-06-10T14:36:33;24.80;53.10
1453;DHT22;720;47.738;7.998;2023-06-10T14:38:58;24.80;55.30
1453;DHT22;720;47.738;7.998;2023-06-10T14:41:24;24.90;58.50
1453;DHT22;720;47.738;7.998;2023-06-10T14:43:50;24.90;61.10
1453;DHT22;720;47.738;7.998;2023-06-10T14:46:15;24.90;63.10
1453;DHT22;720;47.738;7.998;2023-06-10T14:48:41;24.90;63.30
1453;DHT22;720;47.738;7.998;2023-06-10T14:51:07;24.70;61.30
1453;DHT22;720;47.738;7.998;2023-06-10T14:53:32;24.50;66.80
1453;DHT22;720;47.738;7.998;2023-06-10T14:55:58;24.30;70.50
1453;DHT22;720;47.738;7.998;2023-06-10T14:58:23;24.20;70.20
1453;DHT22;720;47.738;7.998;2023-06-10T15:00:49;24.10;65.80
1453;DHT22;720;47.738;7.998;2023-06-10T15:03:15;23.90;56.20
1453;DHT22;720;47.738;7.998;2023-06-10T15:05:41;24.10;58.10
1453;DHT22;720;47.738;7.998;2023-06-10T15:08:06;24.40;55.70
1453;DHT22;720;47.738;7.998;2023-06-10T15:10:33;24.70;56.80
1453;DHT22;720;47.738;7.998;2023-06-10T15:12:58;24.90;57.90
1453;DHT22;720;47.738;7.998;2023-06-10T15:15:25;24.90;54.10
1453;DHT22;720;47.738;7.998;2023-06-10T15:17:51;24.90;53.90
1453;DHT22;720;47.738;7.998;2023-06-10T15:20:17;24.80;53.30
1453;DHT22;720;47.738;7.998;2023-06-10T15:22:43;24.70;54.30
1453;DHT22;720;47.738;7.998;2023-06-10T15:25:09;24.80;57.30
1453;DHT22;720;47.738;7.998;2023-06-10T15:27:35;24.70;59.30
1453;DHT22;720;47.738;7.998;2023-06-10T15:30:00;24.70;60.80
1453;DHT22;720;47.738;7.998;2023-06-10T15:32:26;24.60;56.50
1453;DHT22;720;47.738;7.998;2023-06-10T15:34:52;24.70;55.80
1453;DHT22;720;47.738;7.998;2023-06-10T15:37:18;24.70;60.40
1453;DHT22;720;47.738;7.998;2023-06-10T15:39:44;24.70;64.00
1453;DHT22;720;47.738;7.998;2023-06-10T15:42:10;24.60;61.60
1453;DHT22;720;47.738;7.998;2023-06-10T15:44:36;24.50;78.60
1453;DHT22;720;47.738;7.998;2023-06-10T15:47:01;24.40;63.60
1453;DHT22;720;47.738;7.998;2023-06-10T15:49:27;24.20;66.50
1453;DHT22;720;47.738;7.998;2023-06-10T15:51:53;23.70;56.70
1453;DHT22;720;47.738;7.998;2023-06-10T15:54:18;23.60;54.10
1453;DHT22;720;47.738;7.998;2023-06-10T15:56:44;23.60;54.00
1453;DHT22;720;47.738;7.998;2023-06-10T15:59:10;23.70;53.30
1453;DHT22;720;47.738;7.998;2023-06-10T16:01:37;23.80;58.20
1453;DHT22;720;47.738;7.998;2023-06-10T16:04:03;23.80;59.70
1453;DHT22;720;47.738;7.998;2023-06-10T16:06:28;23.80;59.00
1453;DHT22;720;47.738;7.998;2023-06-10T16:08:54;23.70;57.80
1453;DHT22;720;47.738;7.998;2023-06-10T16:11:20;23.50;53.40
1453;DHT22;720;47.738;7.998;2023-06-10T16:13:47;23.70;55.10
1453;DHT22;720;47.738;7.998;2023-06-10T16:16:13;23.90;53.90
1453;DHT22;720;47.738;7.998;2023-06-10T16:18:39;24.00;52.70
1453;DHT22;720;47.738;7.998;2023-06-10T16:21:04;24.10;53.10
1453;DHT22;720;47.738;7.998;2023-06-10T16:23:30;24.10;54.60
1453;DHT22;720;47.738;7.998;2023-06-10T16:25:56;24.10;58.80
1453;DHT22;720;47.738;7.998;2023-06-10T16:28:22;24.00;60.70
1453;DHT22;720;47.738;7.998;2023-06-10T16:30:48;23.90;60.60
1453;DHT22;720;47.738;7.998;2023-06-10T16:33:13;23.70;59.60
1453;DHT22;720;47.738;7.998;2023-06-10T16:35:39;23.60;59.80
1453;DHT22;720;47.738;7.998;2023-06-10T16:38:05;23.50;60.10
1453;DHT22;720;47.738;7.998;2023-06-10T16:40:30;23.70;60.50